sensor_id;sensor_type;location;lat;lon;timestamp;P1;durP1;ratioP1;P2;durP2;ratioP2
18378;SDS011;27025;51.986;5.984;2022-12-20T00:02:24;6.07;;;3.53;;
18378;SDS011;27025;51.986;5.984;2022-12-20T00:04:50;4.83;;;3.50;;
18378;SDS011;27025;51.986;5.984;2022-12-20T00:07:16;3.93;;;3.57;;
18378;SDS011;27025;51.986;5.984;2022-12-20T00:09:43;5.00;;;3.63;;
18378;SDS011;27025;51.986;5.984;2022-12-20T00:12:09;4.27;;;3.27;;
18378;SDS011;27025;51.986;5.984;2022-12-20T00:14:35;4.13;;;3.30;;
18378;SDS011;27025;51.986;5.984;2022-12-20T00:17:00;5.97;;;3.77;;
18378;SDS011;27025;51.986;5.984;2022-12-20T00:19:26;3.60;;;3.10;;
18378;SDS011;27025;51.986;5.984;2022-12-20T00:21:52;3.80;;;2.90;;
18378;SDS011;27025;51.986;5.984;2022-12-20T00:24:18;4.27;;;3.20;;
18378;SDS011;27025;51.986;5.984;2022-12-20T00:26:44;7.10;;;3.10;;
18378;SDS011;27025;51.986;5.984;2022-12-20T00:29:10;3.50;;;3.20;;
18378;SDS011;27025;51.986;5.984;2022-12-20T00:31:37;3.60;;;3.07;;
18378;SDS011;27025;51.986;5.984;2022-12-20T00:34:03;3.83;;;3.10;;
18378;SDS011;27025;51.986;5.984;2022-12-20T00:36:29;4.93;;;2.90;;
18378;SDS011;27025;51.986;5.984;2022-12-20T00:38:56;3.00;;;2.70;;
18378;SDS011;27025;51.986;5.984;2022-12-20T00:41:24;4.10;;;2.97;;
18378;SDS011;27025;51.986;5.984;2022-12-20T00:43:50;3.00;;;2.70;;
18378;SDS011;27025;51.986;5.984;2022-12-20T00:46:17;3.17;;;2.60;;
18378;SDS011;27025;51.986;5.984;2022-12-20T00:48:43;4.90;;;2.53;;
18378;SDS011;27025;51.986;5.984;2022-12-20T00:51:10;5.47;;;2.93;;
18378;SDS011;27025;51.986;5.984;2022-12-20T00:53:37;3.40;;;2.67;;
18378;SDS011;27025;51.986;5.984;2022-12-20T00:56:03;3.17;;;2.60;;
18378;SDS011;27025;51.986;5.984;2022-12-20T00:58:34;3.87;;;2.60;;
18378;SDS011;27025;51.986;5.984;2022-12-20T01:01:02;3.07;;;2.43;;
18378;SDS011;27025;51.986;5.984;2022-12-20T01:03:28;3.93;;;2.53;;
18378;SDS011;27025;51.986;5.984;2022-12-20T01:05:55;7.30;;;2.80;;
18378;SDS011;27025;51.986;5.984;2022-12-20T01:08:22;4.20;;;2.80;;
18378;SDS011;27025;51.986;5.984;2022-12-20T01:13:27;5.27;;;2.70;;
18378;SDS011;27025;51.986;5.984;2022-12-20T01:15:53;5.23;;;3.13;;
18378;SDS011;27025;51.986;5.984;2022-12-20T01:18:19;4.20;;;2.50;;
18378;SDS011;27025;51.986;5.984;2022-12-20T01:20:45;3.07;;;2.73;;
18378;SDS011;27025;51.986;5.984;2022-12-20T01:23:11;3.77;;;3.00;;
18378;SDS011;27025;51.986;5.984;2022-12-20T01:25:37;3.80;;;2.60;;
18378;SDS011;27025;51.986;5.984;2022-12-20T01:28:03;3.60;;;2.67;;
18378;SDS011;27025;51.986;5.984;2022-12-20T01:30:29;4.87;;;2.87;;
18378;SDS011;27025;51.986;5.984;2022-12-20T01:32:55;5.03;;;2.80;;
18378;SDS011;27025;51.986;5.984;2022-12-20T01:35:21;3.27;;;2.67;;
18378;SDS011;27025;51.986;5.984;2022-12-20T01:37:47;5.67;;;2.67;;
18378;SDS011;27025;51.986;5.984;2022-12-20T01:40:13;3.40;;;2.77;;
18378;SDS011;27025;51.986;5.984;2022-12-20T01:42:40;3.20;;;2.80;;
18378;SDS011;27025;51.986;5.984;2022-12-20T01:45:08;4.87;;;2.90;;
18378;SDS011;27025;51.986;5.984;2022-12-20T01:47:37;6.83;;;3.10;;
18378;SDS011;27025;51.986;5.984;2022-12-20T01:50:05;4.70;;;3.20;;
18378;SDS011;27025;51.986;5.984;2022-12-20T01:52:36;3.27;;;2.80;;
18378;SDS011;27025;51.986;5.984;2022-12-20T01:57:32;4.80;;;3.10;;
18378;SDS011;27025;51.986;5.984;2022-12-20T01:59:59;4.97;;;3.10;;
18378;SDS011;27025;51.986;5.984;2022-12-20T02:02:25;5.70;;;3.27;;
18378;SDS011;27025;51.986;5.984;2022-12-20T02:04:51;3.23;;;2.93;;
18378;SDS011;27025;51.986;5.984;2022-12-20T02:07:19;4.60;;;2.87;;
18378;SDS011;27025;51.986;5.984;2022-12-20T02:09:46;4.77;;;3.20;;
18378;SDS011;27025;51.986;5.984;2022-12-20T02:12:19;3.93;;;3.30;;
18378;SDS011;27025;51.986;5.984;2022-12-20T02:30:12;4.00;;;3.60;;
18378;SDS011;27025;51.986;5.984;2022-12-20T02:32:41;6.43;;;4.13;;
18378;SDS011;27025;51.986;5.984;2022-12-20T02:35:11;7.13;;;4.80;;
18378;SDS011;27025;51.986;5.984;2022-12-20T02:37:45;5.97;;;4.17;;
18378;SDS011;27025;51.986;5.984;2022-12-20T02:40:11;5.73;;;4.37;;
18378;SDS011;27025;51.986;5.984;2022-12-20T02:42:38;6.00;;;4.57;;
18378;SDS011;27025;51.986;5.984;2022-12-20T02:45:05;4.77;;;4.33;;
18378;SDS011;27025;51.986;5.984;2022-12-20T02:50:07;5.77;;;4.53;;
18378;SDS011;27025;51.986;5.984;2022-12-20T02:52:34;6.47;;;4.40;;
18378;SDS011;27025;51.986;5.984;2022-12-20T02:55:01;6.23;;;4.87;;
18378;SDS011;27025;51.986;5.984;2022-12-20T02:57:29;7.50;;;4.60;;
18378;SDS011;27025;51.986;5.984;2022-12-20T02:59:59;5.97;;;5.20;;
18378;SDS011;27025;51.986;5.984;2022-12-20T03:02:27;6.90;;;5.10;;
18378;SDS011;27025;51.986;5.984;2022-12-20T03:04:53;8.00;;;4.80;;
18378;SDS011;27025;51.986;5.984;2022-12-20T03:07:20;5.50;;;5.00;;
18378;SDS011;27025;51.986;5.984;2022-12-20T03:09:46;7.57;;;4.93;;
18378;SDS011;27025;51.986;5.984;2022-12-20T03:12:13;8.43;;;5.00;;
18378;SDS011;27025;51.986;5.984;2022-12-20T03:14:40;6.17;;;4.63;;
18378;SDS011;27025;51.986;5.984;2022-12-20T03:17:06;6.37;;;5.13;;
18378;SDS011;27025;51.986;5.984;2022-12-20T03:19:33;7.63;;;5.43;;
18378;SDS011;27025;51.986;5.984;2022-12-20T03:21:59;9.20;;;5.73;;
18378;SDS011;27025;51.986;5.984;2022-12-20T03:24:25;8.57;;;5.77;;
18378;SDS011;27025;51.986;5.984;2022-12-20T03:26:51;8.20;;;6.03;;
18378;SDS011;27025;51.986;5.984;2022-12-20T03:29:17;10.20;;;6.33;;
18378;SDS011;27025;51.986;5.984;2022-12-20T03:31:43;6.83;;;6.13;;
18378;SDS011;27025;51.986;5.984;2022-12-20T03:34:09;8.23;;;6.50;;
18378;SDS011;27025;51.986;5.984;2022-12-20T03:36:35;7.67;;;6.00;;
18378;SDS011;27025;51.986;5.984;2022-12-20T03:39:02;9.80;;;6.00;;
18378;SDS011;27025;51.986;5.984;2022-12-20T03:41:28;6.33;;;5.73;;
18378;SDS011;27025;51.986;5.984;2022-12-20T03:43:54;6.40;;;5.77;;
18378;SDS011;27025;51.986;5.984;2022-12-20T03:46:20;8.00;;;5.50;;
18378;SDS011;27025;51.986;5.984;2022-12-20T03:48:46;7.83;;;5.77;;
18378;SDS011;27025;51.986;5.984;2022-12-20T03:51:12;6.90;;;5.80;;
18378;SDS011;27025;51.986;5.984;2022-12-20T03:53:38;6.27;;;5.67;;
18378;SDS011;27025;51.986;5.984;2022-12-20T03:56:04;6.43;;;5.13;;
18378;SDS011;27025;51.986;5.984;2022-12-20T03:58:30;9.67;;;6.10;;
18378;SDS011;27025;51.986;5.984;2022-12-20T04:00:56;7.07;;;5.37;;
18378;SDS011;27025;51.986;5.984;2022-12-20T04:03:22;6.33;;;5.33;;
18378;SDS011;27025;51.986;5.984;2022-12-20T04:05:48;7.53;;;5.50;;
18378;SDS011;27025;51.986;5.984;2022-12-20T04:08:14;6.90;;;5.07;;
18378;SDS011;27025;51.986;5.984;2022-12-20T04:10:40;6.43;;;5.00;;
18378;SDS011;27025;51.986;5.984;2022-12-20T04:13:25;9.30;;;5.37;;
18378;SDS011;27025;51.986;5.984;2022-12-20T04:15:51;7.43;;;5.60;;
18378;SDS011;27025;51.986;5.984;2022-12-20T04:18:17;6.57;;;5.20;;
18378;SDS011;27025;51.986;5.984;2022-12-20T04:20:44;6.33;;;5.40;;
18378;SDS011;27025;51.986;5.984;2022-12-20T04:23:10;7.90;;;5.50;;
18378;SDS011;27025;51.986;5.984;2022-12-20T04:25:35;8.70;;;5.40;;
18378;SDS011;27025;51.986;5.984;2022-12-20T04:28:01;6.07;;;5.00;;
18378;SDS011;27025;51.986;5.984;2022-12-20T04:30:27;5.77;;;4.90;;
18378;SDS011;27025;51.986;5.984;2022-12-20T04:32:53;7.23;;;5.20;;
18378;SDS011;27025;51.986;5.984;2022-12-20T04:35:20;6.27;;;4.73;;
18378;SDS011;27025;51.986;5.984;2022-12-20T04:37:46;4.93;;;4.50;;
18378;SDS011;27025;51.986;5.984;2022-12-20T04:40:12;5.57;;;4.77;;
18378;SDS011;27025;51.986;5.984;2022-12-20T04:42:38;5.80;;;4.60;;
18378;SDS011;27025;51.986;5.984;2022-12-20T04:45:04;7.27;;;4.77;;
18378;SDS011;27025;51.986;5.984;2022-12-20T04:47:30;9.00;;;4.57;;
18378;SDS011;27025;51.986;5.984;2022-12-20T04:49:56;4.93;;;4.13;;
18378;SDS011;27025;51.986;5.984;2022-12-20T04:52:22;4.60;;;4.10;;
18378;SDS011;27025;51.986;5.984;2022-12-20T04:55:07;6.23;;;4.47;;
18378;SDS011;27025;51.986;5.984;2022-12-20T04:57:33;7.40;;;4.70;;
18378;SDS011;27025;51.986;5.984;2022-12-20T04:59:59;5.53;;;4.40;;
18378;SDS011;27025;51.986;5.984;2022-12-20T05:02:25;5.43;;;4.03;;
18378;SDS011;27025;51.986;5.984;2022-12-20T05:04:53;7.80;;;4.03;;
18378;SDS011;27025;51.986;5.984;2022-12-20T05:07:19;4.13;;;3.70;;
18378;SDS011;27025;51.986;5.984;2022-12-20T05:09:45;4.77;;;3.80;;
18378;SDS011;27025;51.986;5.984;2022-12-20T05:12:11;4.40;;;3.70;;
18378;SDS011;27025;51.986;5.984;2022-12-20T05:14:37;6.13;;;3.43;;
18378;SDS011;27025;51.986;5.984;2022-12-20T05:17:03;5.13;;;3.70;;
18378;SDS011;27025;51.986;5.984;2022-12-20T05:19:29;4.80;;;3.63;;
18378;SDS011;27025;51.986;5.984;2022-12-20T05:21:55;5.23;;;3.80;;
18378;SDS011;27025;51.986;5.984;2022-12-20T05:24:40;5.33;;;3.60;;
18378;SDS011;27025;51.986;5.984;2022-12-20T05:27:24;9.07;;;4.23;;
18378;SDS011;27025;51.986;5.984;2022-12-20T05:32:22;6.53;;;3.97;;
18378;SDS011;27025;51.986;5.984;2022-12-20T05:34:48;5.63;;;3.83;;
18378;SDS011;27025;51.986;5.984;2022-12-20T05:37:14;5.47;;;4.00;;
18378;SDS011;27025;51.986;5.984;2022-12-20T05:39:40;6.77;;;4.20;;
18378;SDS011;27025;51.986;5.984;2022-12-20T05:42:06;5.83;;;4.43;;
18378;SDS011;27025;51.986;5.984;2022-12-20T05:44:32;9.93;;;4.67;;
18378;SDS011;27025;51.986;5.984;2022-12-20T05:46:58;5.27;;;4.07;;
18378;SDS011;27025;51.986;5.984;2022-12-20T05:49:24;5.37;;;4.30;;
18378;SDS011;27025;51.986;5.984;2022-12-20T05:51:50;7.77;;;4.47;;
18378;SDS011;27025;51.986;5.984;2022-12-20T05:54:16;8.97;;;4.50;;
18378;SDS011;27025;51.986;5.984;2022-12-20T05:56:42;8.95;;;4.47;;
18378;SDS011;27025;51.986;5.984;2022-12-20T05:59:08;7.83;;;4.70;;
18378;SDS011;27025;51.986;5.984;2022-12-20T06:01:34;6.77;;;4.40;;
18378;SDS011;27025;51.986;5.984;2022-12-20T06:04:01;8.77;;;4.37;;
18378;SDS011;27025;51.986;5.984;2022-12-20T06:06:27;6.60;;;4.43;;
18378;SDS011;27025;51.986;5.984;2022-12-20T06:08:53;6.10;;;4.30;;
18378;SDS011;27025;51.986;5.984;2022-12-20T06:11:20;7.33;;;4.43;;
18378;SDS011;27025;51.986;5.984;2022-12-20T06:13:46;6.10;;;4.40;;
18378;SDS011;27025;51.986;5.984;2022-12-20T06:16:12;8.17;;;4.77;;
18378;SDS011;27025;51.986;5.984;2022-12-20T06:18:38;5.23;;;4.63;;
18378;SDS011;27025;51.986;5.984;2022-12-20T06:21:04;7.60;;;4.70;;
18378;SDS011;27025;51.986;5.984;2022-12-20T06:23:30;10.13;;;4.80;;
18378;SDS011;27025;51.986;5.984;2022-12-20T06:25:56;7.47;;;4.60;;
18378;SDS011;27025;51.986;5.984;2022-12-20T06:28:22;8.50;;;4.80;;
18378;SDS011;27025;51.986;5.984;2022-12-20T06:30:54;8.50;;;4.83;;
18378;SDS011;27025;51.986;5.984;2022-12-20T06:33:21;7.23;;;4.40;;
18378;SDS011;27025;51.986;5.984;2022-12-20T06:35:48;8.00;;;4.53;;
18378;SDS011;27025;51.986;5.984;2022-12-20T06:38:14;6.67;;;4.70;;
18378;SDS011;27025;51.986;5.984;2022-12-20T06:40:40;5.23;;;4.30;;
18378;SDS011;27025;51.986;5.984;2022-12-20T06:43:06;4.93;;;4.00;;
18378;SDS011;27025;51.986;5.984;2022-12-20T06:45:32;6.33;;;3.80;;
18378;SDS011;27025;51.986;5.984;2022-12-20T06:47:58;5.87;;;3.87;;
18378;SDS011;27025;51.986;5.984;2022-12-20T06:50:24;4.83;;;4.07;;
18378;SDS011;27025;51.986;5.984;2022-12-20T06:52:51;6.53;;;4.23;;
18378;SDS011;27025;51.986;5.984;2022-12-20T06:55:18;6.57;;;3.43;;
18378;SDS011;27025;51.986;5.984;2022-12-20T06:57:44;8.13;;;4.20;;
18378;SDS011;27025;51.986;5.984;2022-12-20T07:00:10;5.77;;;3.80;;
18378;SDS011;27025;51.986;5.984;2022-12-20T07:02:37;7.30;;;3.90;;
18378;SDS011;27025;51.986;5.984;2022-12-20T07:05:03;7.25;;;4.55;;
18378;SDS011;27025;51.986;5.984;2022-12-20T07:07:29;8.50;;;4.03;;
18378;SDS011;27025;51.986;5.984;2022-12-20T07:09:55;6.70;;;3.63;;
18378;SDS011;27025;51.986;5.984;2022-12-20T07:12:21;7.13;;;3.90;;
18378;SDS011;27025;51.986;5.984;2022-12-20T07:14:47;7.97;;;4.43;;
18378;SDS011;27025;51.986;5.984;2022-12-20T07:17:14;5.03;;;3.70;;
18378;SDS011;27025;51.986;5.984;2022-12-20T07:19:40;5.13;;;3.47;;
18378;SDS011;27025;51.986;5.984;2022-12-20T07:22:07;4.17;;;3.30;;
18378;SDS011;27025;51.986;5.984;2022-12-20T07:24:33;5.53;;;3.80;;
18378;SDS011;27025;51.986;5.984;2022-12-20T07:26:59;4.40;;;3.20;;
18378;SDS011;27025;51.986;5.984;2022-12-20T07:29:26;4.30;;;3.10;;
18378;SDS011;27025;51.986;5.984;2022-12-20T07:31:52;4.93;;;3.10;;
18378;SDS011;27025;51.986;5.984;2022-12-20T07:34:18;5.33;;;3.13;;
18378;SDS011;27025;51.986;5.984;2022-12-20T07:36:44;6.00;;;3.40;;
18378;SDS011;27025;51.986;5.984;2022-12-20T07:39:10;3.87;;;3.47;;
18378;SDS011;27025;51.986;5.984;2022-12-20T07:41:36;4.17;;;3.23;;
18378;SDS011;27025;51.986;5.984;2022-12-20T07:44:02;4.90;;;3.30;;
18378;SDS011;27025;51.986;5.984;2022-12-20T07:46:28;4.30;;;3.50;;
18378;SDS011;27025;51.986;5.984;2022-12-20T07:48:54;3.70;;;2.87;;
18378;SDS011;27025;51.986;5.984;2022-12-20T07:51:22;4.43;;;3.17;;
18378;SDS011;27025;51.986;5.984;2022-12-20T07:53:51;6.73;;;3.30;;
18378;SDS011;27025;51.986;5.984;2022-12-20T07:56:19;3.97;;;3.00;;
18378;SDS011;27025;51.986;5.984;2022-12-20T07:58:45;5.13;;;3.20;;
18378;SDS011;27025;51.986;5.984;2022-12-20T08:01:11;4.60;;;3.37;;
18378;SDS011;27025;51.986;5.984;2022-12-20T08:03:43;5.47;;;3.60;;
18378;SDS011;27025;51.986;5.984;2022-12-20T08:06:09;5.50;;;3.30;;
18378;SDS011;27025;51.986;5.984;2022-12-20T08:08:37;4.97;;;3.40;;
18378;SDS011;27025;51.986;5.984;2022-12-20T08:11:04;6.70;;;3.80;;
18378;SDS011;27025;51.986;5.984;2022-12-20T08:13:32;6.43;;;3.77;;
18378;SDS011;27025;51.986;5.984;2022-12-20T08:15:58;5.40;;;3.93;;
18378;SDS011;27025;51.986;5.984;2022-12-20T08:18:24;5.07;;;3.50;;
18378;SDS011;27025;51.986;5.984;2022-12-20T08:20:50;6.03;;;3.60;;
18378;SDS011;27025;51.986;5.984;2022-12-20T08:23:16;5.20;;;3.67;;
18378;SDS011;27025;51.986;5.984;2022-12-20T08:25:43;4.97;;;3.40;;
18378;SDS011;27025;51.986;5.984;2022-12-20T08:28:09;5.10;;;3.40;;
18378;SDS011;27025;51.986;5.984;2022-12-20T08:30:36;5.93;;;3.40;;
18378;SDS011;27025;51.986;5.984;2022-12-20T08:33:02;6.53;;;3.10;;
18378;SDS011;27025;51.986;5.984;2022-12-20T08:35:29;4.63;;;2.80;;
18378;SDS011;27025;51.986;5.984;2022-12-20T08:37:55;4.47;;;3.00;;
18378;SDS011;27025;51.986;5.984;2022-12-20T08:40:21;4.50;;;2.77;;
18378;SDS011;27025;51.986;5.984;2022-12-20T08:42:47;5.80;;;2.80;;
18378;SDS011;27025;51.986;5.984;2022-12-20T08:45:14;5.70;;;2.97;;
18378;SDS011;27025;51.986;5.984;2022-12-20T08:47:40;4.63;;;2.90;;
18378;SDS011;27025;51.986;5.984;2022-12-20T08:50:06;5.93;;;2.93;;
18378;SDS011;27025;51.986;5.984;2022-12-20T08:52:32;6.20;;;2.93;;
18378;SDS011;27025;51.986;5.984;2022-12-20T08:54:58;4.90;;;2.97;;
18378;SDS011;27025;51.986;5.984;2022-12-20T08:57:26;5.67;;;2.80;;
18378;SDS011;27025;51.986;5.984;2022-12-20T08:59:52;6.30;;;3.00;;
18378;SDS011;27025;51.986;5.984;2022-12-20T09:02:18;3.87;;;2.60;;
18378;SDS011;27025;51.986;5.984;2022-12-20T09:04:44;5.97;;;2.50;;
18378;SDS011;27025;51.986;5.984;2022-12-20T09:07:10;3.73;;;2.50;;
18378;SDS011;27025;51.986;5.984;2022-12-20T09:09:36;3.80;;;2.67;;
18378;SDS011;27025;51.986;5.984;2022-12-20T09:12:02;3.70;;;3.07;;
18378;SDS011;27025;51.986;5.984;2022-12-20T09:14:28;6.13;;;3.40;;
18378;SDS011;27025;51.986;5.984;2022-12-20T09:16:54;4.40;;;3.03;;
18378;SDS011;27025;51.986;5.984;2022-12-20T09:19:20;4.97;;;3.70;;
18378;SDS011;27025;51.986;5.984;2022-12-20T09:21:46;7.53;;;3.80;;
18378;SDS011;27025;51.986;5.984;2022-12-20T09:24:12;8.17;;;3.80;;
18378;SDS011;27025;51.986;5.984;2022-12-20T09:26:38;5.57;;;3.47;;
18378;SDS011;27025;51.986;5.984;2022-12-20T09:29:04;8.63;;;4.00;;
18378;SDS011;27025;51.986;5.984;2022-12-20T09:31:31;5.57;;;3.90;;
18378;SDS011;27025;51.986;5.984;2022-12-20T09:33:57;5.23;;;3.53;;
18378;SDS011;27025;51.986;5.984;2022-12-20T09:36:24;5.43;;;3.83;;
18378;SDS011;27025;51.986;5.984;2022-12-20T09:38:50;6.60;;;3.73;;
18378;SDS011;27025;51.986;5.984;2022-12-20T09:43:54;7.83;;;4.17;;
18378;SDS011;27025;51.986;5.984;2022-12-20T09:46:21;8.83;;;4.00;;
18378;SDS011;27025;51.986;5.984;2022-12-20T09:48:49;7.60;;;4.07;;
18378;SDS011;27025;51.986;5.984;2022-12-20T09:53:51;9.20;;;4.00;;
18378;SDS011;27025;51.986;5.984;2022-12-20T09:56:23;7.23;;;4.13;;
18378;SDS011;27025;51.986;5.984;2022-12-20T10:01:21;7.77;;;3.77;;
18378;SDS011;27025;51.986;5.984;2022-12-20T10:03:48;6.90;;;4.10;;
18378;SDS011;27025;51.986;5.984;2022-12-20T10:06:34;7.70;;;4.00;;
18378;SDS011;27025;51.986;5.984;2022-12-20T10:09:09;7.47;;;3.93;;
18378;SDS011;27025;51.986;5.984;2022-12-20T10:16:54;6.70;;;3.80;;
18378;SDS011;27025;51.986;5.984;2022-12-20T10:22:12;5.60;;;3.40;;
18378;SDS011;27025;51.986;5.984;2022-12-20T10:24:40;6.43;;;3.80;;
18378;SDS011;27025;51.986;5.984;2022-12-20T10:27:14;6.67;;;3.90;;
18378;SDS011;27025;51.986;5.984;2022-12-20T10:29:41;10.43;;;3.90;;
18378;SDS011;27025;51.986;5.984;2022-12-20T10:32:11;6.43;;;4.10;;
18378;SDS011;27025;51.986;5.984;2022-12-20T10:34:38;6.20;;;3.73;;
18378;SDS011;27025;51.986;5.984;2022-12-20T10:37:14;7.50;;;3.63;;
18378;SDS011;27025;51.986;5.984;2022-12-20T10:39:41;6.10;;;3.80;;
18378;SDS011;27025;51.986;5.984;2022-12-20T10:42:22;9.33;;;4.10;;
18378;SDS011;27025;51.986;5.984;2022-12-20T10:44:48;9.10;;;4.23;;
18378;SDS011;27025;51.986;5.984;2022-12-20T10:47:23;6.57;;;4.23;;
18378;SDS011;27025;51.986;5.984;2022-12-20T10:49:58;8.10;;;4.57;;
18378;SDS011;27025;51.986;5.984;2022-12-20T10:52:32;7.43;;;4.20;;
18378;SDS011;27025;51.986;5.984;2022-12-20T10:54:58;8.47;;;5.37;;
18378;SDS011;27025;51.986;5.984;2022-12-20T10:57:24;7.90;;;4.93;;
18378;SDS011;27025;51.986;5.984;2022-12-20T10:59:58;8.43;;;5.30;;
18378;SDS011;27025;51.986;5.984;2022-12-20T11:02:26;5.07;;;4.50;;
18378;SDS011;27025;51.986;5.984;2022-12-20T11:07:31;8.27;;;4.80;;
18378;SDS011;27025;51.986;5.984;2022-12-20T11:09:59;7.97;;;4.70;;
18378;SDS011;27025;51.986;5.984;2022-12-20T11:12:25;6.60;;;4.43;;
18378;SDS011;27025;51.986;5.984;2022-12-20T11:15:06;8.20;;;5.03;;
18378;SDS011;27025;51.986;5.984;2022-12-20T11:17:50;5.87;;;4.60;;
18378;SDS011;27025;51.986;5.984;2022-12-20T11:31:27;7.47;;;6.40;;
18378;SDS011;27025;51.986;5.984;2022-12-20T11:34:02;6.13;;;4.60;;
18378;SDS011;27025;51.986;5.984;2022-12-20T11:36:36;7.20;;;4.97;;
18378;SDS011;27025;51.986;5.984;2022-12-20T11:47:27;7.47;;;4.80;;
18378;SDS011;27025;51.986;5.984;2022-12-20T11:50:02;5.67;;;4.80;;
18378;SDS011;27025;51.986;5.984;2022-12-20T11:55:06;5.53;;;4.90;;
18378;SDS011;27025;51.986;5.984;2022-12-20T11:58:04;7.80;;;4.77;;
18378;SDS011;27025;51.986;5.984;2022-12-20T12:00:28;8.00;;;5.13;;
18378;SDS011;27025;51.986;5.984;2022-12-20T12:02:57;9.73;;;5.23;;
18378;SDS011;27025;51.986;5.984;2022-12-20T12:08:17;6.87;;;4.80;;
18378;SDS011;27025;51.986;5.984;2022-12-20T12:10:55;7.60;;;4.80;;
18378;SDS011;27025;51.986;5.984;2022-12-20T12:13:24;8.93;;;4.70;;
18378;SDS011;27025;51.986;5.984;2022-12-20T12:18:36;6.83;;;5.10;;
18378;SDS011;27025;51.986;5.984;2022-12-20T12:23:41;7.80;;;5.07;;
18378;SDS011;27025;51.986;5.984;2022-12-20T12:26:11;8.00;;;4.53;;
18378;SDS011;27025;51.986;5.984;2022-12-20T12:28:38;9.87;;;4.70;;
18378;SDS011;27025;51.986;5.984;2022-12-20T12:31:13;5.50;;;4.83;;
18378;SDS011;27025;51.986;5.984;2022-12-20T12:33:46;6.67;;;5.20;;
18378;SDS011;27025;51.986;5.984;2022-12-20T12:43:53;7.87;;;5.10;;
18378;SDS011;27025;51.986;5.984;2022-12-20T12:46:31;9.90;;;5.23;;
18378;SDS011;27025;51.986;5.984;2022-12-20T12:51:35;7.67;;;5.47;;
18378;SDS011;27025;51.986;5.984;2022-12-20T12:54:03;7.40;;;5.27;;
18378;SDS011;27025;51.986;5.984;2022-12-20T12:56:30;7.90;;;5.47;;
18378;SDS011;27025;51.986;5.984;2022-12-20T13:01:50;7.60;;;5.43;;
18378;SDS011;27025;51.986;5.984;2022-12-20T13:09:19;9.37;;;5.77;;
18378;SDS011;27025;51.986;5.984;2022-12-20T13:11:46;8.77;;;5.53;;
18378;SDS011;27025;51.986;5.984;2022-12-20T13:16:39;10.17;;;5.50;;
18378;SDS011;27025;51.986;5.984;2022-12-20T13:19:13;7.60;;;5.20;;
18378;SDS011;27025;51.986;5.984;2022-12-20T13:21:46;8.27;;;5.43;;
18378;SDS011;27025;51.986;5.984;2022-12-20T13:26:57;9.40;;;5.87;;
18378;SDS011;27025;51.986;5.984;2022-12-20T13:29:33;7.03;;;5.43;;
18378;SDS011;27025;51.986;5.984;2022-12-20T13:32:00;7.33;;;6.07;;
18378;SDS011;27025;51.986;5.984;2022-12-20T13:34:52;8.03;;;6.07;;
18378;SDS011;27025;51.986;5.984;2022-12-20T13:37:28;8.47;;;6.03;;
18378;SDS011;27025;51.986;5.984;2022-12-20T13:40:04;8.77;;;6.33;;
18378;SDS011;27025;51.986;5.984;2022-12-20T13:42:36;10.00;;;6.23;;
18378;SDS011;27025;51.986;5.984;2022-12-20T13:45:04;9.97;;;6.50;;
18378;SDS011;27025;51.986;5.984;2022-12-20T13:47:39;8.17;;;6.80;;
18378;SDS011;27025;51.986;5.984;2022-12-20T13:50:26;7.43;;;6.23;;
18378;SDS011;27025;51.986;5.984;2022-12-20T13:52:52;9.97;;;6.43;;
18378;SDS011;27025;51.986;5.984;2022-12-20T13:55:24;8.07;;;6.87;;
18378;SDS011;27025;51.986;5.984;2022-12-20T13:57:50;7.80;;;6.43;;
18378;SDS011;27025;51.986;5.984;2022-12-20T14:00:18;10.30;;;7.20;;
18378;SDS011;27025;51.986;5.984;2022-12-20T14:02:44;8.60;;;6.70;;
18378;SDS011;27025;51.986;5.984;2022-12-20T14:07:39;9.13;;;6.73;;
18378;SDS011;27025;51.986;5.984;2022-12-20T14:10:16;11.03;;;7.07;;
18378;SDS011;27025;51.986;5.984;2022-12-20T14:12:43;10.67;;;6.90;;
18378;SDS011;27025;51.986;5.984;2022-12-20T14:15:20;8.30;;;7.40;;
18378;SDS011;27025;51.986;5.984;2022-12-20T14:17:46;10.60;;;7.40;;
18378;SDS011;27025;51.986;5.984;2022-12-20T14:22:40;9.13;;;8.03;;
18378;SDS011;27025;51.986;5.984;2022-12-20T14:25:07;9.53;;;7.87;;
18378;SDS011;27025;51.986;5.984;2022-12-20T14:27:35;8.70;;;7.77;;
18378;SDS011;27025;51.986;5.984;2022-12-20T14:30:03;9.57;;;7.37;;
18378;SDS011;27025;51.986;5.984;2022-12-20T14:32:29;9.93;;;8.10;;
18378;SDS011;27025;51.986;5.984;2022-12-20T14:34:55;11.77;;;9.83;;
18378;SDS011;27025;51.986;5.984;2022-12-20T14:40:36;9.17;;;8.17;;
18378;SDS011;27025;51.986;5.984;2022-12-20T14:42:40;11.13;;;8.23;;
18378;SDS011;27025;51.986;5.984;2022-12-20T14:47:36;9.10;;;8.17;;
18378;SDS011;27025;51.986;5.984;2022-12-20T14:50:05;8.67;;;7.83;;
18378;SDS011;27025;51.986;5.984;2022-12-20T14:52:33;9.43;;;8.53;;
18378;SDS011;27025;51.986;5.984;2022-12-20T14:55:20;9.07;;;8.17;;
18378;SDS011;27025;51.986;5.984;2022-12-20T14:57:53;11.63;;;8.77;;
18378;SDS011;27025;51.986;5.984;2022-12-20T15:02:56;10.87;;;8.10;;
18378;SDS011;27025;51.986;5.984;2022-12-20T15:13:18;8.67;;;7.73;;
18378;SDS011;27025;51.986;5.984;2022-12-20T15:15:44;8.40;;;7.60;;
18378;SDS011;27025;51.986;5.984;2022-12-20T15:18:11;8.40;;;7.60;;
18378;SDS011;27025;51.986;5.984;2022-12-20T15:20:38;9.37;;;7.80;;
18378;SDS011;27025;51.986;5.984;2022-12-20T15:23:04;7.77;;;7.07;;
18378;SDS011;27025;51.986;5.984;2022-12-20T15:25:31;8.13;;;7.33;;
18378;SDS011;27025;51.986;5.984;2022-12-20T15:27:58;8.47;;;7.33;;
18378;SDS011;27025;51.986;5.984;2022-12-20T15:30:24;7.73;;;7.03;;
18378;SDS011;27025;51.986;5.984;2022-12-20T15:32:50;8.70;;;7.80;;
18378;SDS011;27025;51.986;5.984;2022-12-20T15:35:16;8.70;;;7.90;;
18378;SDS011;27025;51.986;5.984;2022-12-20T15:37:42;8.30;;;7.53;;
18378;SDS011;27025;51.986;5.984;2022-12-20T15:40:12;9.43;;;8.13;;
18378;SDS011;27025;51.986;5.984;2022-12-20T15:42:40;8.93;;;8.00;;
18378;SDS011;27025;51.986;5.984;2022-12-20T15:45:16;9.20;;;8.40;;
18378;SDS011;27025;51.986;5.984;2022-12-20T15:47:42;9.60;;;8.70;;
18378;SDS011;27025;51.986;5.984;2022-12-20T15:50:09;10.23;;;8.60;;
18378;SDS011;27025;51.986;5.984;2022-12-20T15:52:36;9.70;;;8.90;;
18378;SDS011;27025;51.986;5.984;2022-12-20T15:55:02;9.23;;;8.43;;
18378;SDS011;27025;51.986;5.984;2022-12-20T15:57:28;11.23;;;10.07;;
18378;SDS011;27025;51.986;5.984;2022-12-20T15:59:54;10.70;;;9.67;;
18378;SDS011;27025;51.986;5.984;2022-12-20T16:02:22;10.23;;;9.27;;
18378;SDS011;27025;51.986;5.984;2022-12-20T16:04:48;10.53;;;9.37;;
18378;SDS011;27025;51.986;5.984;2022-12-20T16:07:14;10.97;;;9.90;;
18378;SDS011;27025;51.986;5.984;2022-12-20T16:09:41;10.90;;;9.80;;
18378;SDS011;27025;51.986;5.984;2022-12-20T16:12:10;11.33;;;10.20;;
18378;SDS011;27025;51.986;5.984;2022-12-20T16:14:37;12.33;;;11.00;;
18378;SDS011;27025;51.986;5.984;2022-12-20T16:17:03;12.17;;;10.97;;
18378;SDS011;27025;51.986;5.984;2022-12-20T16:19:29;12.73;;;11.53;;
18378;SDS011;27025;51.986;5.984;2022-12-20T16:21:56;12.53;;;11.33;;
18378;SDS011;27025;51.986;5.984;2022-12-20T16:24:22;12.90;;;11.70;;
18378;SDS011;27025;51.986;5.984;2022-12-20T16:26:48;14.13;;;12.70;;
18378;SDS011;27025;51.986;5.984;2022-12-20T16:29:14;13.50;;;12.20;;
18378;SDS011;27025;51.986;5.984;2022-12-20T16:31:40;14.37;;;12.97;;
18378;SDS011;27025;51.986;5.984;2022-12-20T16:34:15;13.87;;;12.57;;
18378;SDS011;27025;51.986;5.984;2022-12-20T16:36:42;14.27;;;12.87;;
18378;SDS011;27025;51.986;5.984;2022-12-20T16:39:08;14.80;;;13.30;;
18378;SDS011;27025;51.986;5.984;2022-12-20T16:41:34;15.13;;;13.53;;
18378;SDS011;27025;51.986;5.984;2022-12-20T16:44:01;14.23;;;12.77;;
18378;SDS011;27025;51.986;5.984;2022-12-20T16:46:28;15.07;;;13.57;;
18378;SDS011;27025;51.986;5.984;2022-12-20T16:48:55;14.97;;;13.47;;